sensor_id;sensor_type;location;lat;lon;timestamp;P1;P2;P0
69688;PMS5003;56932;38.402;-96.176;2023-05-07T00:02:18;3;2;
69688;PMS5003;56932;38.402;-96.176;2023-05-07T00:04:44;3;3;
69688;PMS5003;56932;38.402;-96.176;2023-05-07T00:07:09;2;1;
69688;PMS5003;56932;38.402;-96.176;2023-05-07T00:09:35;1;1;
69688;PMS5003;56932;38.402;-96.176;2023-05-07T00:12:00;1;1;
69688;PMS5003;56932;38.402;-96.176;2023-05-07T00:14:26;1;1;
69688;PMS5003;56932;38.402;-96.176;2023-05-07T00:16:51;1;1;
69688;PMS5003;56932;38.402;-96.176;2023-05-07T00:19:16;0;0;
69688;PMS5003;56932;38.402;-96.176;2023-05-07T00:21:42;4;2;
69688;PMS5003;56932;38.402;-96.176;2023-05-07T00:24:07;1;1;
69688;PMS5003;56932;38.402;-96.176;2023-05-07T00:26:33;0;0;
69688;PMS5003;56932;38.402;-96.176;2023-05-07T00:28:58;1;1;
69688;PMS5003;56932;38.402;-96.176;2023-05-07T00:31:24;3;3;
69688;PMS5003;56932;38.402;-96.176;2023-05-07T00:33:49;1;1;
69688;PMS5003;56932;38.402;-96.176;2023-05-07T00:36:15;1;1;
69688;PMS5003;56932;38.402;-96.176;2023-05-07T00:38:40;1;1;
69688;PMS5003;56932;38.402;-96.176;2023-05-07T00:41:06;2;2;
69688;PMS5003;56932;38.402;-96.176;2023-05-07T00:43:31;1;1;
69688;PMS5003;56932;38.402;-96.176;2023-05-07T00:45:57;0;0;
69688;PMS5003;56932;38.402;-96.176;2023-05-07T00:48:22;1;1;
69688;PMS5003;56932;38.402;-96.176;2023-05-07T00:50:48;1;1;
69688;PMS5003;56932;38.402;-96.176;2023-05-07T00:53:13;2;2;
69688;PMS5003;56932;38.402;-96.176;2023-05-07T00:55:39;3;2;
69688;PMS5003;56932;38.402;-96.176;2023-05-07T00:58:04;2;2;
69688;PMS5003;56932;38.402;-96.176;2023-05-07T01:00:30;1;1;
69688;PMS5003;56932;38.402;-96.176;2023-05-07T01:02:55;1;1;
69688;PMS5003;56932;38.402;-96.176;2023-05-07T01:05:21;0;0;
69688;PMS5003;56932;38.402;-96.176;2023-05-07T01:07:46;3;1;
69688;PMS5003;56932;38.402;-96.176;2023-05-07T01:10:12;3;2;
69688;PMS5003;56932;38.402;-96.176;2023-05-07T01:12:37;1;1;
69688;PMS5003;56932;38.402;-96.176;2023-05-07T01:15:03;1;1;
69688;PMS5003;56932;38.402;-96.176;2023-05-07T01:17:28;1;1;
69688;PMS5003;56932;38.402;-96.176;2023-05-07T01:19:53;0;0;
69688;PMS5003;56932;38.402;-96.176;2023-05-07T01:22:24;2;1;
69688;PMS5003;56932;38.402;-96.176;2023-05-07T01:24:45;1;1;
69688;PMS5003;56932;38.402;-96.176;2023-05-07T01:27:10;3;0;
69688;PMS5003;56932;38.402;-96.176;2023-05-07T01:29:35;1;1;
69688;PMS5003;56932;38.402;-96.176;2023-05-07T01:32:01;1;1;
69688;PMS5003;56932;38.402;-96.176;2023-05-07T01:34:27;1;1;
69688;PMS5003;56932;38.402;-96.176;2023-05-07T01:36:52;0;0;
69688;PMS5003;56932;38.402;-96.176;2023-05-07T01:39:17;2;0;
69688;PMS5003;56932;38.402;-96.176;2023-05-07T01:41:43;2;2;
69688;PMS5003;56932;38.402;-96.176;2023-05-07T01:44:08;2;2;
69688;PMS5003;56932;38.402;-96.176;2023-05-07T01:46:34;1;1;
69688;PMS5003;56932;38.402;-96.176;2023-05-07T01:48:59;1;1;
69688;PMS5003;56932;38.402;-96.176;2023-05-07T01:51:24;2;2;
69688;PMS5003;56932;38.402;-96.176;2023-05-07T01:53:51;0;0;
69688;PMS5003;56932;38.402;-96.176;2023-05-07T01:56:16;0;0;
69688;PMS5003;56932;38.402;-96.176;2023-05-07T01:58:41;1;1;
69688;PMS5003;56932;38.402;-96.176;2023-05-07T02:01:06;1;1;
69688;PMS5003;56932;38.402;-96.176;2023-05-07T02:03:32;1;1;
69688;PMS5003;56932;38.402;-96.176;2023-05-07T02:05:57;1;1;
69688;PMS5003;56932;38.402;-96.176;2023-05-07T02:08:23;3;1;
69688;PMS5003;56932;38.402;-96.176;2023-05-07T02:10:48;0;0;
69688;PMS5003;56932;38.402;-96.176;2023-05-07T02:13:14;0;0;
69688;PMS5003;56932;38.402;-96.176;2023-05-07T02:15:39;0;0;
69688;PMS5003;56932;38.402;-96.176;2023-05-07T02:18:05;3;1;
69688;PMS5003;56932;38.402;-96.176;2023-05-07T02:20:30;1;1;
69688;PMS5003;56932;38.402;-96.176;2023-05-07T02:22:55;1;1;
69688;PMS5003;56932;38.402;-96.176;2023-05-07T02:25:21;1;1;
69688;PMS5003;56932;38.402;-96.176;2023-05-07T02:27:47;2;2;
69688;PMS5003;56932;38.402;-96.176;2023-05-07T02:30:13;2;2;
69688;PMS5003;56932;38.402;-96.176;2023-05-07T02:32:37;2;2;
69688;PMS5003;56932;38.402;-96.176;2023-05-07T02:35:03;5;2;
69688;PMS5003;56932;38.402;-96.176;2023-05-07T02:37:28;2;2;
69688;PMS5003;56932;38.402;-96.176;2023-05-07T02:39:53;4;2;
69688;PMS5003;56932;38.402;-96.176;2023-05-07T02:42:19;4;3;
69688;PMS5003;56932;38.402;-96.176;2023-05-07T02:44:44;5;3;
69688;PMS5003;56932;38.402;-96.176;2023-05-07T02:47:10;2;2;
69688;PMS5003;56932;38.402;-96.176;2023-05-07T02:49:35;4;3;
69688;PMS5003;56932;38.402;-96.176;2023-05-07T02:52:01;2;2;
69688;PMS5003;56932;38.402;-96.176;2023-05-07T02:54:26;6;2;
69688;PMS5003;56932;38.402;-96.176;2023-05-07T02:56:51;6;3;
69688;PMS5003;56932;38.402;-96.176;2023-05-07T02:59:17;4;2;
69688;PMS5003;56932;38.402;-96.176;2023-05-07T03:01:42;2;2;
69688;PMS5003;56932;38.402;-96.176;2023-05-07T03:04:08;5;2;
69688;PMS5003;56932;38.402;-96.176;2023-05-07T03:06:33;4;4;
69688;PMS5003;56932;38.402;-96.176;2023-05-07T03:08:58;3;3;
69688;PMS5003;56932;38.402;-96.176;2023-05-07T03:11:24;3;3;
69688;PMS5003;56932;38.402;-96.176;2023-05-07T03:13:49;3;1;
69688;PMS5003;56932;38.402;-96.176;2023-05-07T03:16:15;1;1;
69688;PMS5003;56932;38.402;-96.176;2023-05-07T03:18:40;4;2;
69688;PMS5003;56932;38.402;-96.176;2023-05-07T03:21:05;3;3;
69688;PMS5003;56932;38.402;-96.176;2023-05-07T03:23:31;2;2;
69688;PMS5003;56932;38.402;-96.176;2023-05-07T03:25:56;4;4;
69688;PMS5003;56932;38.402;-96.176;2023-05-07T03:28:22;4;3;
69688;PMS5003;56932;38.402;-96.176;2023-05-07T03:30:47;5;3;
69688;PMS5003;56932;38.402;-96.176;2023-05-07T03:33:12;4;4;
69688;PMS5003;56932;38.402;-96.176;2023-05-07T03:35:38;3;3;
69688;PMS5003;56932;38.402;-96.176;2023-05-07T03:38:03;2;2;
69688;PMS5003;56932;38.402;-96.176;2023-05-07T03:40:29;3;2;
69688;PMS5003;56932;38.402;-96.176;2023-05-07T03:42:54;3;2;
69688;PMS5003;56932;38.402;-96.176;2023-05-07T03:45:20;5;2;
69688;PMS5003;56932;38.402;-96.176;2023-05-07T03:47:45;5;2;
69688;PMS5003;56932;38.402;-96.176;2023-05-07T03:50:10;5;2;
69688;PMS5003;56932;38.402;-96.176;2023-05-07T03:52:36;5;3;
69688;PMS5003;56932;38.402;-96.176;2023-05-07T03:55:01;4;3;
69688;PMS5003;56932;38.402;-96.176;2023-05-07T03:57:27;2;2;
69688;PMS5003;56932;38.402;-96.176;2023-05-07T03:59:52;5;3;
69688;PMS5003;56932;38.402;-96.176;2023-05-07T04:02:18;3;3;
69688;PMS5003;56932;38.402;-96.176;2023-05-07T04:04:43;5;3;
69688;PMS5003;56932;38.402;-96.176;2023-05-07T04:07:08;3;3;
69688;PMS5003;56932;38.402;-96.176;2023-05-07T04:09:34;2;1;
69688;PMS5003;56932;38.402;-96.176;2023-05-07T04:12:00;6;3;
69688;PMS5003;56932;38.402;-96.176;2023-05-07T04:14:25;2;2;
69688;PMS5003;56932;38.402;-96.176;2023-05-07T04:16:50;2;2;
69688;PMS5003;56932;38.402;-96.176;2023-05-07T04:19:16;2;2;
69688;PMS5003;56932;38.402;-96.176;2023-05-07T04:21:41;4;2;
69688;PMS5003;56932;38.402;-96.176;2023-05-07T04:24:07;1;1;
69688;PMS5003;56932;38.402;-96.176;2023-05-07T04:26:32;3;3;
69688;PMS5003;56932;38.402;-96.176;2023-05-07T04:28:57;3;3;
69688;PMS5003;56932;38.402;-96.176;2023-05-07T04:31:23;3;3;
69688;PMS5003;56932;38.402;-96.176;2023-05-07T04:33:49;3;3;
69688;PMS5003;56932;38.402;-96.176;2023-05-07T04:36:14;4;3;
69688;PMS5003;56932;38.402;-96.176;2023-05-07T04:38:39;6;4;
69688;PMS5003;56932;38.402;-96.176;2023-05-07T04:41:05;3;3;
69688;PMS5003;56932;38.402;-96.176;2023-05-07T04:43:30;7;4;
69688;PMS5003;56932;38.402;-96.176;2023-05-07T04:45:55;8;4;
69688;PMS5003;56932;38.402;-96.176;2023-05-07T04:48:21;4;3;
69688;PMS5003;56932;38.402;-96.176;2023-05-07T04:50:47;2;2;
69688;PMS5003;56932;38.402;-96.176;2023-05-07T04:53:11;4;4;
69688;PMS5003;56932;38.402;-96.176;2023-05-07T04:55:37;3;3;
69688;PMS5003;56932;38.402;-96.176;2023-05-07T04:58:03;8;4;
69688;PMS5003;56932;38.402;-96.176;2023-05-07T05:00:28;3;3;
69688;PMS5003;56932;38.402;-96.176;2023-05-07T05:02:53;5;4;
69688;PMS5003;56932;38.402;-96.176;2023-05-07T05:05:19;4;3;
69688;PMS5003;56932;38.402;-96.176;2023-05-07T05:07:44;4;4;
69688;PMS5003;56932;38.402;-96.176;2023-05-07T05:10:10;4;3;
69688;PMS5003;56932;38.402;-96.176;2023-05-07T05:12:35;5;5;
69688;PMS5003;56932;38.402;-96.176;2023-05-07T05:15:01;4;4;
69688;PMS5003;56932;38.402;-96.176;2023-05-07T05:17:26;4;4;
69688;PMS5003;56932;38.402;-96.176;2023-05-07T05:19:52;5;2;
69688;PMS5003;56932;38.402;-96.176;2023-05-07T05:22:17;5;4;
69688;PMS5003;56932;38.402;-96.176;2023-05-07T05:24:42;5;3;
69688;PMS5003;56932;38.402;-96.176;2023-05-07T05:27:08;4;4;
69688;PMS5003;56932;38.402;-96.176;2023-05-07T05:29:33;4;4;
69688;PMS5003;56932;38.402;-96.176;2023-05-07T05:31:59;3;3;
69688;PMS5003;56932;38.402;-96.176;2023-05-07T05:34:24;4;3;
69688;PMS5003;56932;38.402;-96.176;2023-05-07T05:36:50;3;3;
69688;PMS5003;56932;38.402;-96.176;2023-05-07T05:39:15;5;5;
69688;PMS5003;56932;38.402;-96.176;2023-05-07T05:41:40;8;2;
69688;PMS5003;56932;38.402;-96.176;2023-05-07T05:44:06;5;4;
69688;PMS5003;56932;38.402;-96.176;2023-05-07T05:46:32;4;4;
69688;PMS5003;56932;38.402;-96.176;2023-05-07T05:48:57;4;4;
69688;PMS5003;56932;38.402;-96.176;2023-05-07T05:51:22;5;5;
69688;PMS5003;56932;38.402;-96.176;2023-05-07T05:53:48;5;3;
69688;PMS5003;56932;38.402;-96.176;2023-05-07T05:56:13;5;5;
69688;PMS5003;56932;38.402;-96.176;2023-05-07T05:58:39;4;4;
69688;PMS5003;56932;38.402;-96.176;2023-05-07T06:01:04;6;4;
69688;PMS5003;56932;38.402;-96.176;2023-05-07T06:03:29;5;3;
69688;PMS5003;56932;38.402;-96.176;2023-05-07T06:05:55;7;4;
69688;PMS5003;56932;38.402;-96.176;2023-05-07T06:08:21;6;6;
69688;PMS5003;56932;38.402;-96.176;2023-05-07T06:10:46;4;4;
69688;PMS5003;56932;38.402;-96.176;2023-05-07T06:13:11;4;3;
69688;PMS5003;56932;38.402;-96.176;2023-05-07T06:15:37;3;2;
69688;PMS5003;56932;38.402;-96.176;2023-05-07T06:18:02;6;4;
69688;PMS5003;56932;38.402;-96.176;2023-05-07T06:20:28;6;6;
69688;PMS5003;56932;38.402;-96.176;2023-05-07T06:22:53;5;3;
69688;PMS5003;56932;38.402;-96.176;2023-05-07T06:25:19;4;4;
69688;PMS5003;56932;38.402;-96.176;2023-05-07T06:27:44;4;4;
69688;PMS5003;56932;38.402;-96.176;2023-05-07T06:30:10;3;3;
69688;PMS5003;56932;38.402;-96.176;2023-05-07T06:32:36;5;5;
69688;PMS5003;56932;38.402;-96.176;2023-05-07T06:35:00;4;4;
69688;PMS5003;56932;38.402;-96.176;2023-05-07T06:37:26;3;3;
69688;PMS5003;56932;38.402;-96.176;2023-05-07T06:39:52;4;4;
69688;PMS5003;56932;38.402;-96.176;2023-05-07T06:42:17;3;3;
69688;PMS5003;56932;38.402;-96.176;2023-05-07T06:44:42;12;5;
69688;PMS5003;56932;38.402;-96.176;2023-05-07T06:47:08;4;4;
69688;PMS5003;56932;38.402;-96.176;2023-05-07T06:49:33;5;4;
69688;PMS5003;56932;38.402;-96.176;2023-05-07T06:51:58;6;4;
69688;PMS5003;56932;38.402;-96.176;2023-05-07T06:54:24;2;2;
69688;PMS5003;56932;38.402;-96.176;2023-05-07T06:56:49;3;3;
69688;PMS5003;56932;38.402;-96.176;2023-05-07T06:59:15;4;2;
69688;PMS5003;56932;38.402;-96.176;2023-05-07T07:01:40;3;3;
69688;PMS5003;56932;38.402;-96.176;2023-05-07T07:04:06;4;4;
69688;PMS5003;56932;38.402;-96.176;2023-05-07T07:06:32;3;3;
69688;PMS5003;56932;38.402;-96.176;2023-05-07T07:08:56;4;4;
69688;PMS5003;56932;38.402;-96.176;2023-05-07T07:11:22;3;3;
69688;PMS5003;56932;38.402;-96.176;2023-05-07T07:13:47;4;4;
69688;PMS5003;56932;38.402;-96.176;2023-05-07T07:16:13;3;3;
69688;PMS5003;56932;38.402;-96.176;2023-05-07T07:18:38;6;4;
69688;PMS5003;56932;38.402;-96.176;2023-05-07T07:21:04;6;4;
69688;PMS5003;56932;38.402;-96.176;2023-05-07T07:23:29;4;4;
69688;PMS5003;56932;38.402;-96.176;2023-05-07T07:25:55;5;4;
69688;PMS5003;56932;38.402;-96.176;2023-05-07T07:28:20;3;3;
69688;PMS5003;56932;38.402;-96.176;2023-05-07T07:30:46;4;4;
69688;PMS5003;56932;38.402;-96.176;2023-05-07T07:33:11;4;4;
69688;PMS5003;56932;38.402;-96.176;2023-05-07T07:35:37;5;4;
69688;PMS5003;56932;38.402;-96.176;2023-05-07T07:38:02;5;4;
69688;PMS5003;56932;38.402;-96.176;2023-05-07T07:40:28;5;5;
69688;PMS5003;56932;38.402;-96.176;2023-05-07T07:42:53;4;4;
69688;PMS5003;56932;38.402;-96.176;2023-05-07T07:45:19;2;2;
69688;PMS5003;56932;38.402;-96.176;2023-05-07T07:47:44;3;3;
69688;PMS5003;56932;38.402;-96.176;2023-05-07T07:50:10;4;4;
69688;PMS5003;56932;38.402;-96.176;2023-05-07T07:52:35;6;5;
69688;PMS5003;56932;38.402;-96.176;2023-05-07T07:55:00;4;3;
69688;PMS5003;56932;38.402;-96.176;2023-05-07T07:57:26;4;4;
69688;PMS5003;56932;38.402;-96.176;2023-05-07T07:59:51;5;5;
69688;PMS5003;56932;38.402;-96.176;2023-05-07T08:02:17;7;5;
69688;PMS5003;56932;38.402;-96.176;2023-05-07T08:04:42;4;4;
69688;PMS5003;56932;38.402;-96.176;2023-05-07T08:07:08;2;2;
69688;PMS5003;56932;38.402;-96.176;2023-05-07T08:09:33;5;4;
69688;PMS5003;56932;38.402;-96.176;2023-05-07T08:11:59;4;4;
69688;PMS5003;56932;38.402;-96.176;2023-05-07T08:14:25;6;6;
69688;PMS5003;56932;38.402;-96.176;2023-05-07T08:16:49;6;6;
69688;PMS5003;56932;38.402;-96.176;2023-05-07T08:19:15;8;4;
69688;PMS5003;56932;38.402;-96.176;2023-05-07T08:21:40;4;4;
69688;PMS5003;56932;38.402;-96.176;2023-05-07T08:24:06;4;4;
69688;PMS5003;56932;38.402;-96.176;2023-05-07T08:26:32;8;6;
69688;PMS5003;56932;38.402;-96.176;2023-05-07T08:28:57;6;4;
69688;PMS5003;56932;38.402;-96.176;2023-05-07T08:31:22;9;5;
69688;PMS5003;56932;38.402;-96.176;2023-05-07T08:33:48;4;4;
69688;PMS5003;56932;38.402;-96.176;2023-05-07T08:36:13;5;5;
69688;PMS5003;56932;38.402;-96.176;2023-05-07T08:38:39;4;4;
69688;PMS5003;56932;38.402;-96.176;2023-05-07T08:41:04;4;4;
69688;PMS5003;56932;38.402;-96.176;2023-05-07T08:43:30;5;5;
69688;PMS5003;56932;38.402;-96.176;2023-05-07T08:45:55;4;4;
69688;PMS5003;56932;38.402;-96.176;2023-05-07T08:48:21;4;4;
69688;PMS5003;56932;38.402;-96.176;2023-05-07T08:50:46;4;4;
69688;PMS5003;56932;38.402;-96.176;2023-05-07T08:53:12;4;4;
69688;PMS5003;56932;38.402;-96.176;2023-05-07T08:55:37;6;6;
69688;PMS5003;56932;38.402;-96.176;2023-05-07T08:58:03;5;5;
69688;PMS5003;56932;38.402;-96.176;2023-05-07T09:00:28;6;4;
69688;PMS5003;56932;38.402;-96.176;2023-05-07T09:02:53;6;5;
69688;PMS5003;56932;38.402;-96.176;2023-05-07T09:05:19;6;5;
69688;PMS5003;56932;38.402;-96.176;2023-05-07T09:07:45;7;7;
69688;PMS5003;56932;38.402;-96.176;2023-05-07T09:10:10;8;8;
69688;PMS5003;56932;38.402;-96.176;2023-05-07T09:12:35;6;6;
69688;PMS5003;56932;38.402;-96.176;2023-05-07T09:15:01;8;8;
69688;PMS5003;56932;38.402;-96.176;2023-05-07T09:17:26;6;3;
69688;PMS5003;56932;38.402;-96.176;2023-05-07T09:19:52;6;6;
69688;PMS5003;56932;38.402;-96.176;2023-05-07T09:22:17;8;7;
69688;PMS5003;56932;38.402;-96.176;2023-05-07T09:24:46;8;8;
69688;PMS5003;56932;38.402;-96.176;2023-05-07T09:27:08;6;6;
69688;PMS5003;56932;38.402;-96.176;2023-05-07T09:29:34;6;6;
69688;PMS5003;56932;38.402;-96.176;2023-05-07T09:31:59;7;7;
69688;PMS5003;56932;38.402;-96.176;2023-05-07T09:34:25;6;6;
69688;PMS5003;56932;38.402;-96.176;2023-05-07T09:36:50;5;5;
69688;PMS5003;56932;38.402;-96.176;2023-05-07T09:39:15;8;6;
69688;PMS5003;56932;38.402;-96.176;2023-05-07T09:41:43;7;7;
69688;PMS5003;56932;38.402;-96.176;2023-05-07T09:44:06;8;7;
69688;PMS5003;56932;38.402;-96.176;2023-05-07T09:46:31;8;7;
69688;PMS5003;56932;38.402;-96.176;2023-05-07T09:48:57;8;8;
69688;PMS5003;56932;38.402;-96.176;2023-05-07T09:51:24;8;8;
69688;PMS5003;56932;38.402;-96.176;2023-05-07T09:53:47;10;9;
69688;PMS5003;56932;38.402;-96.176;2023-05-07T09:56:13;8;7;
69688;PMS5003;56932;38.402;-96.176;2023-05-07T09:58:38;8;8;
69688;PMS5003;56932;38.402;-96.176;2023-05-07T10:01:04;11;7;
69688;PMS5003;56932;38.402;-96.176;2023-05-07T10:03:29;9;9;
69688;PMS5003;56932;38.402;-96.176;2023-05-07T10:05:55;4;4;
69688;PMS5003;56932;38.402;-96.176;2023-05-07T10:08:20;6;6;
69688;PMS5003;56932;38.402;-96.176;2023-05-07T10:10:45;10;8;
69688;PMS5003;56932;38.402;-96.176;2023-05-07T10:13:11;7;6;
69688;PMS5003;56932;38.402;-96.176;2023-05-07T10:15:37;10;8;
69688;PMS5003;56932;38.402;-96.176;2023-05-07T10:18:02;8;8;
69688;PMS5003;56932;38.402;-96.176;2023-05-07T10:20:28;7;7;
69688;PMS5003;56932;38.402;-96.176;2023-05-07T10:22:53;7;6;
69688;PMS5003;56932;38.402;-96.176;2023-05-07T10:25:21;5;5;
69688;PMS5003;56932;38.402;-96.176;2023-05-07T10:27:44;7;7;
69688;PMS5003;56932;38.402;-96.176;2023-05-07T10:30:12;10;9;
69688;PMS5003;56932;38.402;-96.176;2023-05-07T10:32:38;6;6;
69688;PMS5003;56932;38.402;-96.176;2023-05-07T10:35:01;6;6;
69688;PMS5003;56932;38.402;-96.176;2023-05-07T10:37:25;7;5;
69688;PMS5003;56932;38.402;-96.176;2023-05-07T10:39:51;8;8;
69688;PMS5003;56932;38.402;-96.176;2023-05-07T10:42:16;8;7;
69688;PMS5003;56932;38.402;-96.176;2023-05-07T10:44:42;8;8;
69688;PMS5003;56932;38.402;-96.176;2023-05-07T10:47:08;9;9;
69688;PMS5003;56932;38.402;-96.176;2023-05-07T10:49:33;7;7;
69688;PMS5003;56932;38.402;-96.176;2023-05-07T10:54:24;9;7;
69688;PMS5003;56932;38.402;-96.176;2023-05-07T10:56:49;6;6;
69688;PMS5003;56932;38.402;-96.176;2023-05-07T11:06:31;18;11;
69688;PMS5003;56932;38.402;-96.176;2023-05-07T11:08:56;18;12;
69688;PMS5003;56932;38.402;-96.176;2023-05-07T11:13:47;6;6;
69688;PMS5003;56932;38.402;-96.176;2023-05-07T11:21:04;10;9;
69688;PMS5003;56932;38.402;-96.176;2023-05-07T11:25:58;9;9;
69688;PMS5003;56932;38.402;-96.176;2023-05-07T11:28:20;9;9;
69688;PMS5003;56932;38.402;-96.176;2023-05-07T11:30:45;14;12;
69688;PMS5003;56932;38.402;-96.176;2023-05-07T11:33:11;9;9;
69688;PMS5003;56932;38.402;-96.176;2023-05-07T11:35:36;9;8;
69688;PMS5003;56932;38.402;-96.176;2023-05-07T11:38:01;9;9;
69688;PMS5003;56932;38.402;-96.176;2023-05-07T11:40:27;9;9;
69688;PMS5003;56932;38.402;-96.176;2023-05-07T11:42:52;10;8;
69688;PMS5003;56932;38.402;-96.176;2023-05-07T11:47:43;11;11;
69688;PMS5003;56932;38.402;-96.176;2023-05-07T11:50:08;8;8;
69688;PMS5003;56932;38.402;-96.176;2023-05-07T11:52:34;8;8;
69688;PMS5003;56932;38.402;-96.176;2023-05-07T11:55:00;7;7;
69688;PMS5003;56932;38.402;-96.176;2023-05-07T11:57:25;6;6;
69688;PMS5003;56932;38.402;-96.176;2023-05-07T11:59:52;12;9;
69688;PMS5003;56932;38.402;-96.176;2023-05-07T12:02:16;11;9;
69688;PMS5003;56932;38.402;-96.176;2023-05-07T12:04:41;13;12;
69688;PMS5003;56932;38.402;-96.176;2023-05-07T12:07:11;9;7;
69688;PMS5003;56932;38.402;-96.176;2023-05-07T12:09:32;11;9;
69688;PMS5003;56932;38.402;-96.176;2023-05-07T12:11:58;9;7;
69688;PMS5003;56932;38.402;-96.176;2023-05-07T12:14:27;11;10;
69688;PMS5003;56932;38.402;-96.176;2023-05-07T12:16:48;10;10;
69688;PMS5003;56932;38.402;-96.176;2023-05-07T12:19:13;9;8;
69688;PMS5003;56932;38.402;-96.176;2023-05-07T12:21:38;7;7;
69688;PMS5003;56932;38.402;-96.176;2023-05-07T12:24:04;8;8;
69688;PMS5003;56932;38.402;-96.176;2023-05-07T12:26:29;10;10;
69688;PMS5003;56932;38.402;-96.176;2023-05-07T12:28:55;9;9;
69688;PMS5003;56932;38.402;-96.176;2023-05-07T12:31:20;9;9;
69688;PMS5003;56932;38.402;-96.176;2023-05-07T12:33:45;9;9;
69688;PMS5003;56932;38.402;-96.176;2023-05-07T12:36:12;11;10;
69688;PMS5003;56932;38.402;-96.176;2023-05-07T12:38:36;9;8;
69688;PMS5003;56932;38.402;-96.176;2023-05-07T12:41:01;10;10;
69688;PMS5003;56932;38.402;-96.176;2023-05-07T12:43:27;9;9;
69688;PMS5003;56932;38.402;-96.176;2023-05-07T12:45:53;10;9;
69688;PMS5003;56932;38.402;-96.176;2023-05-07T12:48:17;10;9;
69688;PMS5003;56932;38.402;-96.176;2023-05-07T12:50:43;12;11;
69688;PMS5003;56932;38.402;-96.176;2023-05-07T12:53:11;7;7;
69688;PMS5003;56932;38.402;-96.176;2023-05-07T12:58:00;8;8;
69688;PMS5003;56932;38.402;-96.176;2023-05-07T13:02:50;8;8;
69688;PMS5003;56932;38.402;-96.176;2023-05-07T13:05:16;9;8;
69688;PMS5003;56932;38.402;-96.176;2023-05-07T13:07:41;9;8;
69688;PMS5003;56932;38.402;-96.176;2023-05-07T13:10:07;8;8;
69688;PMS5003;56932;38.402;-96.176;2023-05-07T13:12:32;9;8;
69688;PMS5003;56932;38.402;-96.176;2023-05-07T13:14:57;9;9;
69688;PMS5003;56932;38.402;-96.176;2023-05-07T13:17:23;8;7;
69688;PMS5003;56932;38.402;-96.176;2023-05-07T13:19:48;7;7;
69688;PMS5003;56932;38.402;-96.176;2023-05-07T13:22:14;9;8;
69688;PMS5003;56932;38.402;-96.176;2023-05-07T13:24:39;8;7;
69688;PMS5003;56932;38.402;-96.176;2023-05-07T13:27:04;8;8;
69688;PMS5003;56932;38.402;-96.176;2023-05-07T13:29:30;8;7;
69688;PMS5003;56932;38.402;-96.176;2023-05-07T13:31:56;6;6;
69688;PMS5003;56932;38.402;-96.176;2023-05-07T13:34:21;7;7;
69688;PMS5003;56932;38.402;-96.176;2023-05-07T13:36:46;10;8;
69688;PMS5003;56932;38.402;-96.176;2023-05-07T13:39:11;9;7;
69688;PMS5003;56932;38.402;-96.176;2023-05-07T13:41:37;5;4;
69688;PMS5003;56932;38.402;-96.176;2023-05-07T13:44:02;5;5;
69688;PMS5003;56932;38.402;-96.176;2023-05-07T13:46:28;10;7;
69688;PMS5003;56932;38.402;-96.176;2023-05-07T13:48:53;9;8;
69688;PMS5003;56932;38.402;-96.176;2023-05-07T13:51:18;9;7;
69688;PMS5003;56932;38.402;-96.176;2023-05-07T13:53:44;10;5;
69688;PMS5003;56932;38.402;-96.176;2023-05-07T13:56:09;5;5;
69688;PMS5003;56932;38.402;-96.176;2023-05-07T13:58:35;6;6;
69688;PMS5003;56932;38.402;-96.176;2023-05-07T14:01:00;6;6;
69688;PMS5003;56932;38.402;-96.176;2023-05-07T14:03:25;8;8;
69688;PMS5003;56932;38.402;-96.176;2023-05-07T14:05:51;5;5;
69688;PMS5003;56932;38.402;-96.176;2023-05-07T14:08:16;5;5;
69688;PMS5003;56932;38.402;-96.176;2023-05-07T14:10:42;6;6;
69688;PMS5003;56932;38.402;-96.176;2023-05-07T14:13:07;6;4;
69688;PMS5003;56932;38.402;-96.176;2023-05-07T14:15:32;6;5;
69688;PMS5003;56932;38.402;-96.176;2023-05-07T14:17:58;8;8;
69688;PMS5003;56932;38.402;-96.176;2023-05-07T14:20:24;6;5;
69688;PMS5003;56932;38.402;-96.176;2023-05-07T14:22:49;6;5;
69688;PMS5003;56932;38.402;-96.176;2023-05-07T14:25:14;6;6;
69688;PMS5003;56932;38.402;-96.176;2023-05-07T14:27:40;4;4;
69688;PMS5003;56932;38.402;-96.176;2023-05-07T14:30:05;5;3;
69688;PMS5003;56932;38.402;-96.176;2023-05-07T14:32:31;8;4;
69688;PMS5003;56932;38.402;-96.176;2023-05-07T14:34:56;6;6;
69688;PMS5003;56932;38.402;-96.176;2023-05-07T14:37:21;4;4;
69688;PMS5003;56932;38.402;-96.176;2023-05-07T14:39:47;6;5;
69688;PMS5003;56932;38.402;-96.176;2023-05-07T14:42:12;4;3;
69688;PMS5003;56932;38.402;-96.176;2023-05-07T14:44:38;3;3;
69688;PMS5003;56932;38.402;-96.176;2023-05-07T14:47:03;3;3;
69688;PMS5003;56932;38.402;-96.176;2023-05-07T14:49:29;5;5;
69688;PMS5003;56932;38.402;-96.176;2023-05-07T14:51:54;6;3;
69688;PMS5003;56932;38.402;-96.176;2023-05-07T14:54:19;4;4;
69688;PMS5003;56932;38.402;-96.176;2023-05-07T14:56:45;3;3;
69688;PMS5003;56932;38.402;-96.176;2023-05-07T14:59:10;5;5;
69688;PMS5003;56932;38.402;-96.176;2023-05-07T15:01:36;5;3;
69688;PMS5003;56932;38.402;-96.176;2023-05-07T15:04:01;3;3;
69688;PMS5003;56932;38.402;-96.176;2023-05-07T15:06:27;4;4;
69688;PMS5003;56932;38.402;-96.176;2023-05-07T15:08:52;3;3;
69688;PMS5003;56932;38.402;-96.176;2023-05-07T15:11:17;5;5;
69688;PMS5003;56932;38.402;-96.176;2023-05-07T15:13:43;5;5;
69688;PMS5003;56932;38.402;-96.176;2023-05-07T15:16:08;5;5;
69688;PMS5003;56932;38.402;-96.176;2023-05-07T15:18:33;5;2;
69688;PMS5003;56932;38.402;-96.176;2023-05-07T15:20:59;3;3;
69688;PMS5003;56932;38.402;-96.176;2023-05-07T15:23:24;3;3;
69688;PMS5003;56932;38.402;-96.176;2023-05-07T15:25:50;4;4;
69688;PMS5003;56932;38.402;-96.176;2023-05-07T15:28:15;4;3;
69688;PMS5003;56932;38.402;-96.176;2023-05-07T15:30:40;4;4;
69688;PMS5003;56932;38.402;-96.176;2023-05-07T15:33:06;5;4;
69688;PMS5003;56932;38.402;-96.176;2023-05-07T15:35:32;4;4;
69688;PMS5003;56932;38.402;-96.176;2023-05-07T15:37:57;4;4;
69688;PMS5003;56932;38.402;-96.176;2023-05-07T15:40:22;2;2;
69688;PMS5003;56932;38.402;-96.176;2023-05-07T15:42:48;4;4;
69688;PMS5003;56932;38.402;-96.176;2023-05-07T15:45:13;4;4;
69688;PMS5003;56932;38.402;-96.176;2023-05-07T15:47:39;4;4;
69688;PMS5003;56932;38.402;-96.176;2023-05-07T15:50:05;4;4;
69688;PMS5003;56932;38.402;-96.176;2023-05-07T15:52:30;4;4;
69688;PMS5003;56932;38.402;-96.176;2023-05-07T15:54:55;4;4;
69688;PMS5003;56932;38.402;-96.176;2023-05-07T15:57:21;5;5;
69688;PMS5003;56932;38.402;-96.176;2023-05-07T15:59:46;4;4;
69688;PMS5003;56932;38.402;-96.176;2023-05-07T16:02:12;4;4;
69688;PMS5003;56932;38.402;-96.176;2023-05-07T16:04:37;4;4;
69688;PMS5003;56932;38.402;-96.176;2023-05-07T16:07:03;5;5;
69688;PMS5003;56932;38.402;-96.176;2023-05-07T16:09:28;6;4;
69688;PMS5003;56932;38.402;-96.176;2023-05-07T16:11:54;4;4;
69688;PMS5003;56932;38.402;-96.176;2023-05-07T16:14:19;3;3;
69688;PMS5003;56932;38.402;-96.176;2023-05-07T16:16:44;3;3;
69688;PMS5003;56932;38.402;-96.176;2023-05-07T16:19:10;2;2;
69688;PMS5003;56932;38.402;-96.176;2023-05-07T16:21:35;7;6;
69688;PMS5003;56932;38.402;-96.176;2023-05-07T16:24:00;5;5;
69688;PMS5003;56932;38.402;-96.176;2023-05-07T16:26:26;3;3;
69688;PMS5003;56932;38.402;-96.176;2023-05-07T16:28:51;4;4;
69688;PMS5003;56932;38.402;-96.176;2023-05-07T16:31:17;2;2;